Kezdőlap
METAR-TAF:

METAR-TAF

Repülőterek :

Dupage Airport

West Chicago, Illinois, Amerikai Egyesült Államok

földrajzi szélesség: 41-53-47N, földrajzi hosszúság: 088-15-04W, magasság: 231 m

Jelenlegi meteorológiai megfigyelések

A jelentés 49 perccel ezelõtt készült, 08:52 UTC
Szélcsend
Hőmérséklet 18°C
Páratartalom 88%
Légköri nyomás 1019 hPa
Látótávolság: 16.1 km
Szórványos felhőzet 6500 lábon

METAR: KDPA 210852Z 00000KT 10SM SCT065 18/16 A3010 RMK AO2 SLP189 T01830161 56006

Idő: 04:41 (09:41 UTC)

Előrejelzés

A jelentés 37 perccel ezelõtt készült, 09:04 UTC
Az előrejelzés 21-én 09 óra UTC és 22-én 06 óra UTC között érvényes
Különbözõ irányokból fújó szél 3 kt
Látótávolság: 10 km
Szórványos felhőzet 6000 lábon
Szakadozott felhőzet 20000 lábon

TAF: KDPA 210904Z 2109/2206 VRB03KT P6SM SCT060 BKN200

Meteorológiai megfigyelések és előrejelzések több, mint 4000 repülőtéren (METAR és TAF jelentéseket).

A térképen piros és sárga pontok jelzik az elérhető meteorológiai állomásokat.

Mozgassa az egeret a pont fölött, hogy megjelenjen az állomás neve.

Azután kattintson az időjárási megfigyelések és előrejelzések megtekintéséhez.

A térkép megváltoztatása: kattintson a fekete keresztel jelölt zöld gombra ráközelítéshez, a vonallal jelölt zöld gombra távolításhoz, vagy a zöld nyilakra a szomszédos térképek eléréséhez.


METAR-TAF: